Hlavní strana
METAR-TAF:

METAR-TAF

Letiště :

Ben Gurionovo mezinárodní letiště

Tel Aviv / Ben Gurion, Izrael

zeměpisná šířka: 32-00N, zeměpisná délka: 034-54E, výška: 40 m

Aktuální stav počasí

Zpráva byla vytvořena před 15 minutami, v 04:20 UTC
vítr z různých směrů 2 kt
Teplota 13°C
Vlhkost vzduchu 94%
Tlak 1022 hPa
Viditelnost 10 km a více
Žádná oblačnost pod 1500 m, nevyskytují se cumulonimby.

METAR: LLBG 170420Z VRB02KT CAVOK 13/12 Q1022 NOSIG

Čas: 06:35 (04:35 UTC)

Předpověď počasí

Zpráva byla vytvořena před 5 hodinami a 32 minutami, v 23:03 UTC
Předpověď platná od 17 v 00 UTC do 17 v 24 UTC
Jihojihovýchodní vítr 5 kt
Viditelnost 10 km a více
Skoro jasno ve výšce 3500 ft
Změna
od 17 v 07 UTC do 17 v 09 UTC
Severoseverozápadní vítr 8 kt
Skoro jasno ve výšce 4000 ft
Změna
od 17 v 18 UTC do 17 v 20 UTC
Jihojihovýchodní vítr 8 kt
Polojasno ve výšce 3000 ft

TAF: LLBG 162303Z 1700/1724 15005KT 9999 FEW035 BECMG 1707/1709 33008KT FEW040 BECMG 1718/1720 15008KT SCT030 TX24/1712Z TN13/1704Z

Stav a předpovědi počasí z více než 4 000 letišť (zprávy METAR a TAF).

Červené a žluté tečky na mapě představují dostupné meteorologické stanice.

Když kurzor umístíte na tečku, zobrazí se název stanice.

Pak kliknutím zobrazíte stav a předpověď počasí.

Chcete-li změnit mapu, kliknutím na zelené tlačítko se znaménkem +mapu přiblížíte, kliknutím na zelené tlačítko se znaménkem – mapu oddálíte a kliknutím na zelené šipky přejdete na sousední mapy.


METAR-TAF: